Time;durP1;ratioP1;P1;durP2;ratioP2;P2;SDS_P1;SDS_P2;PMS_P1;PMS_P2;Temp;Humidity;BMP_temperature;BMP_pressure;BME280_temperature;BME280_humidity;BME280_pressure;Samples;Min_cycle;Max_cycle;Signal;HPM_P1;HPM_P2
2022/11/24 00:01:29;;;;;;;;;4.75;2.75;;;;;9.97;73.24;100079.03;4873261;28;45522;-58
2022/11/24 00:03:55;;;;;;;;;5.60;2.60;;;;;9.96;72.76;100084.72;4863355;29;45593;-57
2022/11/24 00:06:24;;;;;;;;;7.60;6.00;;;;;9.96;73.18;100076.50;4881857;29;45270;-56
2022/11/24 00:08:49;;;;;;;;;2.80;2.20;;;;;9.96;72.69;100074.63;4898910;29;45433;-58
2022/11/24 00:11:17;;;;;;;;;10.75;6.25;;;;;9.96;73.11;100082.00;4899197;29;45585;-57
2022/11/24 00:13:42;;;;;;;;;11.80;4.40;;;;;9.78;72.97;100058.97;4882101;29;45584;-55
2022/11/24 00:16:13;;;;;;;;;3.75;2.50;;;;;9.90;72.93;100072.78;4881612;29;46978;-56
2022/11/24 00:18:39;;;;;;;;;6.20;4.00;;;;;9.79;73.40;100057.91;4881857;29;45441;-58
2022/11/24 00:21:05;;;;;;;;;4.80;3.00;;;;;9.98;72.67;100104.56;4898653;29;45537;-58
2022/11/24 00:23:31;;;;;;;;;5.00;4.00;;;;;9.70;72.88;100046.38;4898810;29;45278;-58
2022/11/24 00:26:06;;;;;;;;;7.25;5.00;;;;;10.01;72.46;100091.25;4898886;29;46364;-59
2022/11/24 00:28:32;;;;;;;;;3.00;2.00;;;;;10.02;72.31;100095.66;4898151;29;45612;-55
2022/11/24 00:30:58;;;;;;;;;6.80;4.60;;;;;10.01;71.81;100071.19;4899141;29;45350;-61
2022/11/24 00:33:23;;;;;;;;;5.75;3.75;;;;;9.84;72.58;100049.00;4898465;29;45513;-59
2022/11/24 00:35:56;;;;;;;;;9.50;7.50;;;;;10.12;72.07;100080.59;4898763;29;46236;-60
2022/11/24 00:38:22;;;;;;;;;4.00;3.40;;;;;9.24;72.51;99910.63;4898013;29;45492;-60
2022/11/24 00:40:47;;;;;;;;;8.25;5.75;;;;;9.94;71.50;100027.41;4898666;29;45372;-60
2022/11/24 00:43:13;;;;;;;;;5.50;4.25;;;;;10.17;71.42;100039.63;4898349;29;45340;-60
2022/11/24 00:45:38;;;;;;;;;4.25;4.25;;;;;10.16;71.30;100044.25;4898817;29;46453;-59
2022/11/24 00:48:04;;;;;;;;;4.25;4.25;;;;;10.22;71.38;100041.69;4898459;29;45501;-60
2022/11/24 00:50:29;;;;;;;;;6.00;3.25;;;;;9.42;71.46;99905.22;4898444;29;45797;-61
2022/11/24 00:52:55;;;;;;;;;3.00;2.75;;;;;10.26;71.29;100051.97;4898713;29;45201;-60
2022/11/24 00:55:20;;;;;;;;;3.00;3.00;;;;;10.24;70.46;100037.66;4898373;29;46108;-60
2022/11/24 00:57:46;;;;;;;;;1.75;1.50;;;;;10.29;70.49;100043.28;4881312;29;45349;-60
2022/11/24 01:00:12;;;;;;;;;6.25;3.00;;;;;10.26;69.65;100002.59;4897466;29;45236;-60
2022/11/24 01:02:38;;;;;;;;;1.60;1.00;;;;;10.31;69.22;100030.19;4891091;28;45612;-60
2022/11/24 01:05:04;;;;;;;;;2.40;0.80;;;;;10.32;68.46;100044.75;4858400;29;45950;-59
2022/11/24 01:07:30;;;;;;;;;2.25;2.25;;;;;10.26;68.80;100051.97;4878998;29;45431;-60
2022/11/24 01:09:55;;;;;;;;;2.00;1.00;;;;;10.31;69.11;100059.53;4862391;29;45443;-60
2022/11/24 01:12:21;;;;;;;;;2.00;2.00;;;;;10.32;69.52;100074.91;4879613;29;45387;-58
2022/11/24 01:14:46;;;;;;;;;2.50;2.00;;;;;10.29;68.17;100053.41;4879196;29;46106;-59
2022/11/24 01:17:12;;;;;;;;;1.75;0.75;;;;;10.31;68.89;100078.72;4879255;29;45397;-59
2022/11/24 01:19:37;;;;;;;;;3.50;2.50;;;;;10.25;68.80;100063.19;4879125;29;45547;-59
2022/11/24 01:22:02;;;;;;;;;1.75;1.00;;;;;10.27;68.65;100088.47;4879596;29;45418;-62
2022/11/24 01:24:28;;;;;;;;;1.00;1.00;;;;;10.23;68.00;100099.06;4878914;29;45699;-61
2022/11/24 01:26:53;;;;;;;;;0.00;0.00;;;;;10.20;67.98;100096.78;4879293;29;45436;-59
2022/11/24 01:29:19;;;;;;;;;2.00;1.75;;;;;10.16;68.39;100106.50;4892711;29;45532;-61
2022/11/24 01:31:44;;;;;;;;;1.00;0.00;;;;;10.17;68.60;100111.78;4898051;29;45349;-61
2022/11/24 01:34:10;;;;;;;;;1.00;1.00;;;;;10.14;67.75;100114.94;4897777;29;46163;-61
2022/11/24 01:36:35;;;;;;;;;0.00;0.00;;;;;10.11;68.05;100122.78;4897839;29;45188;-61
2022/11/24 01:39:01;;;;;;;;;1.25;0.00;;;;;10.08;68.09;100129.56;4880357;29;45447;-61
2022/11/24 01:41:26;;;;;;;;;0.00;0.00;;;;;10.10;68.21;100137.56;4898145;29;45283;-61
2022/11/24 01:43:53;;;;;;;;;0.00;0.00;;;;;10.07;68.19;100149.81;4880265;29;47860;-61
2022/11/24 01:46:27;;;;;;;;;1.60;1.60;;;;;10.07;68.23;100159.94;4898004;29;45362;-61
2022/11/24 01:49:07;;;;;;;;;1.20;1.20;;;;;10.04;68.12;100158.50;4897677;29;45510;-61
2022/11/24 01:52:00;;;;;;;;;0.40;0.00;;;;;10.03;68.36;100154.06;4898264;29;45619;-61
2022/11/24 01:54:30;;;;;;;;;0.00;0.00;;;;;10.02;69.38;100164.19;4873185;29;47398;-59
2022/11/24 01:57:02;;;;;;;;;0.40;0.40;;;;;10.01;69.00;100164.41;4864880;29;45414;-60
2022/11/24 01:59:28;;;;;;;;;0.80;0.60;;;;;9.96;68.97;100159.59;4880836;29;45529;-59
2022/11/24 02:01:53;;;;;;;;;2.75;0.00;;;;;9.96;69.28;100180.69;4881087;29;45430;-60
2022/11/24 02:04:22;;;;;;;;;2.00;1.00;;;;;9.88;69.80;100174.41;4851911;29;46000;-60
2022/11/24 02:06:48;;;;;;;;;1.00;0.80;;;;;9.93;69.83;100187.44;4880874;29;45443;-60
2022/11/24 02:09:29;;;;;;;;;1.00;1.00;;;;;9.90;70.45;100196.97;4880362;29;45662;-57
2022/11/24 02:11:55;;;;;;;;;1.00;1.00;;;;;9.90;70.38;100213.44;4900476;29;45376;-59
2022/11/24 02:14:20;;;;;;;;;2.50;2.00;;;;;9.83;70.74;100195.34;4900264;29;45359;-58
2022/11/24 02:16:49;;;;;;;;;0.50;0.50;;;;;9.88;70.64;100198.25;4868190;29;45382;-59
2022/11/24 02:19:30;;;;;;;;;1.80;1.00;;;;;9.88;70.71;100209.22;4900434;29;45990;-59
2022/11/24 02:21:55;;;;;;;;;2.20;0.40;;;;;9.85;70.25;100204.16;4884194;29;45517;-59
2022/11/24 02:24:24;;;;;;;;;1.00;1.00;;;;;9.53;70.74;100160.28;4900065;29;46587;-59
2022/11/24 02:26:51;;;;;;;;;1.00;1.00;;;;;9.85;70.91;100209.66;4900708;29;45329;-61
2022/11/24 02:29:16;;;;;;;;;0.00;0.00;;;;;9.82;71.54;100213.66;4900156;29;45445;-61
2022/11/24 02:31:51;;;;;;;;;1.50;1.50;;;;;9.70;71.34;100207.19;4900895;29;45385;-59
2022/11/24 02:34:16;;;;;;;;;0.20;0.20;;;;;9.76;70.78;100226.34;4867269;29;45660;-61
2022/11/24 02:36:42;;;;;;;;;2.00;0.00;;;;;9.68;71.63;100212.91;4900276;29;45387;-61
2022/11/24 02:39:11;;;;;;;;;0.75;0.75;;;;;9.77;71.92;100228.03;4900535;29;45400;-59
2022/11/24 02:41:37;;;;;;;;;2.00;0.80;;;;;9.73;71.37;100236.91;4900553;29;45514;-61
2022/11/24 02:44:02;;;;;;;;;2.00;1.00;;;;;9.50;72.60;100216.34;4900343;29;45387;-61
2022/11/24 02:46:28;;;;;;;;;2.25;0.25;;;;;9.73;72.44;100247.88;4883702;29;45217;-60
2022/11/24 02:48:53;;;;;;;;;2.00;2.00;;;;;9.65;71.92;100251.72;4900736;29;45229;-60
2022/11/24 02:51:19;;;;;;;;;3.00;2.00;;;;;9.45;72.25;100230.72;4900978;29;45300;-59
2022/11/24 02:53:44;;;;;;;;;2.25;1.00;;;;;9.70;72.82;100264.75;4899983;29;46533;-59
2022/11/24 02:56:10;;;;;;;;;0.25;0.25;;;;;9.72;72.93;100281.84;4900401;29;45429;-59
2022/11/24 02:58:35;;;;;;;;;2.50;0.50;;;;;9.41;72.85;100231.38;4900199;29;45458;-61
2022/11/24 03:01:01;;;;;;;;;2.50;1.75;;;;;9.72;73.50;100288.13;4900503;29;45625;-60
2022/11/24 03:03:27;;;;;;;;;5.50;2.00;;;;;9.71;72.73;100274.69;4867292;29;47847;-61
2022/11/24 03:05:52;;;;;;;;;1.25;0.50;;;;;9.70;73.23;100292.16;4853856;28;45878;-59
2022/11/24 03:08:18;;;;;;;;;2.75;1.25;;;;;9.69;73.51;100302.28;4881530;29;45366;-59
2022/11/24 03:10:43;;;;;;;;;3.75;2.00;;;;;9.27;73.74;100242.38;4864185;29;45481;-59
2022/11/24 03:13:09;;;;;;;;;4.00;1.25;;;;;9.61;74.01;100317.06;4848919;29;47000;-61
2022/11/24 03:15:34;;;;;;;;;2.00;1.00;;;;;9.61;74.43;100330.75;4880579;29;46027;-59
2022/11/24 03:18:00;;;;;;;;;0.00;0.00;;;;;9.53;74.98;100320.03;4881148;29;45275;-59
2022/11/24 03:20:25;;;;;;;;;1.25;1.25;;;;;9.54;74.47;100313.50;4881097;29;45201;-59
2022/11/24 03:22:51;;;;;;;;;4.75;1.00;;;;;9.34;73.91;100287.00;4880089;29;46155;-59
2022/11/24 03:25:17;;;;;;;;;2.00;0.50;;;;;9.58;74.31;100338.56;4863767;29;45390;-61
2022/11/24 03:27:42;;;;;;;;;1.00;1.00;;;;;9.61;74.33;100333.50;4881103;29;45149;-61
2022/11/24 03:30:08;;;;;;;;;1.00;1.00;;;;;9.44;74.08;100313.97;4874940;29;45225;-60
2022/11/24 03:32:36;;;;;;;;;3.25;1.50;;;;;9.17;73.85;100278.41;4882682;29;46451;-61
2022/11/24 03:35:02;;;;;;;;;6.80;0.80;;;;;9.34;73.99;100302.63;4867144;29;45341;-60
2022/11/24 03:37:28;;;;;;;;;3.00;1.00;;;;;9.52;74.84;100323.84;4899879;29;45849;-58
2022/11/24 03:39:53;;;;;;;;;2.25;1.00;;;;;9.60;73.89;100342.78;4899375;29;45377;-60
2022/11/24 03:42:19;;;;;;;;;1.50;1.00;;;;;9.17;73.75;100272.09;4882533;29;45971;-59
2022/11/24 03:44:44;;;;;;;;;1.50;1.00;;;;;9.57;74.59;100340.50;4899637;29;45534;-60
2022/11/24 03:47:10;;;;;;;;;2.00;2.00;;;;;9.59;74.78;100345.72;4899806;29;45390;-60
2022/11/24 03:49:35;;;;;;;;;2.75;1.00;;;;;9.58;73.69;100349.53;4882811;29;45632;-59
2022/11/24 03:52:01;;;;;;;;;1.50;0.75;;;;;9.55;74.27;100342.59;4882237;29;46294;-62
2022/11/24 03:54:26;;;;;;;;;1.50;1.50;;;;;9.58;73.74;100349.53;4899404;29;45338;-60
2022/11/24 03:56:52;;;;;;;;;1.00;1.00;;;;;9.55;73.77;100350.81;4899447;29;45311;-60
2022/11/24 03:59:18;;;;;;;;;2.00;1.00;;;;;9.56;73.66;100357.97;4882732;29;45601;-60
2022/11/24 04:01:43;;;;;;;;;2.50;1.00;;;;;9.48;73.80;100352.72;4899145;29;45293;-60
2022/11/24 04:04:10;;;;;;;;;3.25;2.00;;;;;9.54;73.88;100359.25;4861791;29;45423;-61
2022/11/24 04:06:35;;;;;;;;;0.80;0.00;;;;;9.41;73.98;100357.38;4875580;29;45428;-60
2022/11/24 04:09:01;;;;;;;;;1.50;1.00;;;;;9.49;74.14;100377.16;4882352;29;45427;-59
2022/11/24 04:14:10;;;;;;;;;1.80;1.00;;;;;9.39;74.19;100370.44;4899347;29;45450;-61
2022/11/24 04:16:36;;;;;;;;;2.50;1.75;;;;;9.46;74.31;100390.44;4882253;29;45462;-59
2022/11/24 04:19:01;;;;;;;;;1.00;1.00;;;;;9.24;74.28;100360.56;4899319;29;45359;-58
2022/11/24 04:21:27;;;;;;;;;1.25;1.00;;;;;9.40;74.89;100386.66;4899232;29;45640;-58
2022/11/24 04:23:52;;;;;;;;;3.50;1.50;;;;;9.42;73.74;100394.66;4899160;29;45401;-59
2022/11/24 04:26:18;;;;;;;;;3.00;1.75;;;;;9.39;74.26;100395.09;4899238;29;45422;-60
2022/11/24 04:28:43;;;;;;;;;2.25;1.50;;;;;9.40;74.61;100383.09;4899236;29;45371;-61
2022/11/24 04:31:09;;;;;;;;;2.50;0.75;;;;;9.37;74.87;100403.53;4898855;29;46435;-61
2022/11/24 04:33:34;;;;;;;;;5.00;0.75;;;;;9.37;74.18;100395.31;4881720;29;45533;-59
2022/11/24 04:36:00;;;;;;;;;2.75;2.75;;;;;9.07;74.49;100347.31;4898896;29;45407;-59
2022/11/24 04:38:25;;;;;;;;;1.00;1.00;;;;;9.34;75.06;100393.00;4898911;29;45500;-60
2022/11/24 04:40:50;;;;;;;;;3.50;1.75;;;;;9.14;74.33;100362.88;4881488;29;45441;-59
2022/11/24 04:43:18;;;;;;;;;2.25;1.25;;;;;9.34;74.89;100406.69;4881363;29;45400;-61
2022/11/24 04:45:43;;;;;;;;;5.00;1.60;;;;;9.31;73.95;100409.84;4881435;29;45385;-61
2022/11/24 04:48:09;;;;;;;;;3.75;2.25;;;;;9.32;74.84;100406.03;4899101;29;45145;-60
2022/11/24 04:50:35;;;;;;;;;4.50;1.50;;;;;9.10;74.78;100373.41;4898238;29;45353;-61
2022/11/24 04:53:01;;;;;;;;;1.00;1.00;;;;;9.30;74.33;100408.16;4850093;29;45490;-59
2022/11/24 04:55:26;;;;;;;;;1.75;0.50;;;;;9.29;74.47;100417.44;4898379;29;45522;-60
2022/11/24 04:57:52;;;;;;;;;3.00;1.75;;;;;9.27;74.64;100417.66;4898723;29;45426;-60
2022/11/24 05:00:18;;;;;;;;;2.75;1.75;;;;;9.08;75.08;100389.22;4897996;29;45735;-59
2022/11/24 05:02:44;;;;;;;;;1.60;0.60;;;;;9.00;74.84;100379.31;4898493;29;45398;-60
2022/11/24 05:05:09;;;;;;;;;1.75;1.75;;;;;9.30;75.15;100430.06;4894853;28;45530;-63
2022/11/24 05:07:35;;;;;;;;;3.75;2.00;;;;;9.01;74.59;100382.91;4857637;29;45504;-58
2022/11/24 05:12:53;;;;;;;;;2.80;0.20;;;;;9.31;74.37;100431.75;4865411;29;45408;-59
2022/11/24 05:15:18;;;;;;;;;2.40;1.00;;;;;9.28;73.25;100438.50;4879436;29;45369;-59
2022/11/24 05:17:44;;;;;;;;;2.00;1.00;;;;;9.29;73.91;100440.19;4878382;29;45382;-59
2022/11/24 05:20:09;;;;;;;;;1.00;1.00;;;;;9.26;73.97;100431.53;4879301;29;45910;-59
2022/11/24 05:22:35;;;;;;;;;2.00;2.00;;;;;9.27;73.85;100442.28;4878807;29;45404;-61
2022/11/24 05:25:01;;;;;;;;;2.00;1.50;;;;;9.29;73.37;100437.44;4879298;29;45302;-59
2022/11/24 05:27:26;;;;;;;;;6.25;3.75;;;;;9.29;73.45;100445.66;4879449;29;45264;-59
2022/11/24 05:29:52;;;;;;;;;1.25;1.25;;;;;9.02;73.64;100401.84;4880253;29;46103;-60
2022/11/24 05:32:17;;;;;;;;;0.50;0.50;;;;;9.23;73.70;100432.81;4898198;29;45437;-60
2022/11/24 05:34:43;;;;;;;;;1.50;0.75;;;;;9.29;73.97;100442.09;4897892;29;45379;-59
2022/11/24 05:37:08;;;;;;;;;3.00;1.25;;;;;9.25;74.67;100430.72;4898206;29;45358;-58
2022/11/24 05:39:36;;;;;;;;;6.75;2.00;;;;;9.18;73.84;100422.47;4897304;29;45355;-59
2022/11/24 05:44:47;;;;;;;;;1.40;0.00;;;;;9.31;73.88;100453.66;4883927;29;45417;-59
2022/11/24 05:47:12;;;;;;;;;3.50;2.00;;;;;9.22;73.78;100448.41;4901352;29;45441;-59
2022/11/24 05:49:38;;;;;;;;;1.75;1.00;;;;;9.30;73.29;100449.25;4853004;29;48438;-59
2022/11/24 05:52:03;;;;;;;;;2.00;1.00;;;;;9.04;73.73;100423.53;4901251;29;45397;-62
2022/11/24 05:54:29;;;;;;;;;2.00;2.00;;;;;9.26;74.25;100465.25;4901160;29;45441;-60
2022/11/24 05:56:55;;;;;;;;;2.00;0.00;;;;;9.26;74.54;100467.16;4901304;29;45454;-59
2022/11/24 05:59:20;;;;;;;;;0.75;0.00;;;;;9.10;74.91;100436.38;4901004;29;45481;-59
2022/11/24 06:01:46;;;;;;;;;1.00;1.00;;;;;9.26;73.65;100473.47;4901039;29;45368;-60
2022/11/24 06:04:11;;;;;;;;;1.25;1.00;;;;;9.29;74.15;100472.22;4901347;29;45319;-61
2022/11/24 06:06:37;;;;;;;;;1.00;1.00;;;;;9.28;73.50;100487.78;4901263;29;45342;-61
2022/11/24 06:09:03;;;;;;;;;0.25;0.00;;;;;9.27;74.43;100477.91;4866271;28;46823;-61
2022/11/24 06:11:29;;;;;;;;;6.40;2.00;;;;;9.29;74.22;100478.53;4881918;29;45430;-61
2022/11/24 06:13:54;;;;;;;;;16.50;11.25;;;;;8.96;74.72;100438.25;4881715;29;45360;-61
2022/11/24 06:16:20;;;;;;;;;2.25;1.50;;;;;9.25;74.04;100481.91;4882294;29;45504;-61
2022/11/24 06:18:45;;;;;;;;;2.75;1.50;;;;;9.24;74.57;100492.03;4864707;29;48289;-61
2022/11/24 06:21:11;;;;;;;;;2.50;0.50;;;;;9.24;75.05;100494.75;4881902;29;45463;-64
2022/11/24 06:23:37;;;;;;;;;3.00;1.25;;;;;9.25;74.40;100495.59;4882097;29;45368;-61
2022/11/24 06:26:03;;;;;;;;;6.60;4.00;;;;;9.22;74.71;100492.22;4881961;29;45423;-61
2022/11/24 06:28:28;;;;;;;;;2.75;2.00;;;;;9.23;74.81;100498.53;4881872;29;46456;-60
2022/11/24 06:30:54;;;;;;;;;3.25;1.00;;;;;9.19;74.61;100494.53;4890805;29;45336;-60
2022/11/24 06:33:19;;;;;;;;;4.00;1.00;;;;;9.19;74.29;100509.06;4883960;29;45402;-60
2022/11/24 06:35:45;;;;;;;;;2.00;2.00;;;;;9.13;74.17;100500.84;4900679;29;45291;-60
2022/11/24 06:38:11;;;;;;;;;5.00;2.00;;;;;8.97;74.02;100469.22;4900100;29;46699;-57
2022/11/24 06:40:36;;;;;;;;;2.00;1.00;;;;;9.19;74.50;100510.97;4883616;29;46685;-59
2022/11/24 06:43:01;;;;;;;;;1.75;1.75;;;;;9.18;74.42;100509.28;4900258;29;45403;-59
2022/11/24 06:45:27;;;;;;;;;1.00;1.00;;;;;9.16;74.67;100525.91;4900954;29;45263;-59
2022/11/24 06:47:53;;;;;;;;;8.75;5.50;;;;;9.16;74.51;100520.44;4900430;29;45306;-60
2022/11/24 06:50:19;;;;;;;;;3.00;1.00;;;;;9.19;74.41;100528.22;4900223;29;45232;-60
2022/11/24 06:52:44;;;;;;;;;9.00;3.00;;;;;9.18;74.56;100532.03;4900165;29;45431;-60
2022/11/24 06:55:10;;;;;;;;;2.25;1.75;;;;;9.13;74.37;100529.06;4883373;29;45343;-60
2022/11/24 06:57:35;;;;;;;;;1.75;1.75;;;;;9.19;75.19;100543.81;4899160;29;46824;-59
2022/11/24 07:00:04;;;;;;;;;2.25;2.25;;;;;9.04;75.11;100514.75;4899927;29;45508;-62
2022/11/24 07:02:30;;;;;;;;;3.40;2.00;;;;;9.11;75.88;100544.84;4900282;29;45572;-60
2022/11/24 07:04:56;;;;;;;;;1.75;1.75;;;;;9.06;75.47;100559.16;4900498;29;45293;-58
2022/11/24 07:07:21;;;;;;;;;3.00;2.00;;;;;9.08;75.62;100559.81;4899821;29;45918;-59
2022/11/24 07:09:47;;;;;;;;;2.00;2.00;;;;;9.07;75.49;100574.53;4900289;29;45321;-59
2022/11/24 07:12:12;;;;;;;;;3.00;2.00;;;;;8.45;75.29;100477.88;4858016;28;45991;-59
2022/11/24 07:14:38;;;;;;;;;2.00;0.50;;;;;9.08;75.66;100578.97;4881735;29;45553;-58
2022/11/24 07:17:04;;;;;;;;;4.50;2.75;;;;;9.05;75.44;100576.66;4864099;29;46594;-58
2022/11/24 07:19:30;;;;;;;;;4.60;2.00;;;;;8.74;76.29;100526.00;4880916;29;45865;-59
2022/11/24 07:21:55;;;;;;;;;3.75;2.75;;;;;9.02;76.66;100585.25;4881276;29;45728;-59
2022/11/24 07:24:21;;;;;;;;;6.00;3.00;;;;;9.01;76.34;100574.53;4881250;29;45923;-58
2022/11/24 07:26:47;;;;;;;;;3.00;3.00;;;;;9.03;75.89;100575.16;4881058;29;46224;-58
2022/11/24 07:29:12;;;;;;;;;1.25;1.25;;;;;9.03;75.79;100594.34;4864280;29;45441;-62
2022/11/24 07:31:38;;;;;;;;;4.00;2.00;;;;;8.97;76.61;100585.06;4893157;29;45461;-61
2022/11/24 07:34:03;;;;;;;;;2.00;2.00;;;;;8.98;76.88;100596.84;4883070;29;45364;-60
2022/11/24 07:36:29;;;;;;;;;7.75;4.50;;;;;9.03;76.99;100591.59;4866884;29;46140;-61
2022/11/24 07:38:54;;;;;;;;;9.00;4.00;;;;;9.02;77.01;100585.25;4899605;29;45530;-60
2022/11/24 07:41:20;;;;;;;;;3.25;3.25;;;;;9.00;76.49;100590.09;4899401;29;45453;-58
2022/11/24 07:43:46;;;;;;;;;3.75;1.50;;;;;8.94;76.12;100577.25;4899691;29;45623;-60
2022/11/24 07:46:13;;;;;;;;;2.75;2.75;;;;;8.71;76.59;100555.69;4899395;29;47509;-61
2022/11/24 07:48:38;;;;;;;;;5.20;3.60;;;;;9.00;77.37;100600.19;4882760;29;45393;-61
2022/11/24 07:51:04;;;;;;;;;3.75;2.50;;;;;8.99;76.69;100609.47;4867184;29;45317;-62
2022/11/24 07:53:30;;;;;;;;;3.50;3.50;;;;;9.00;77.45;100614.75;4899624;29;45786;-61
2022/11/24 07:55:59;;;;;;;;;4.00;3.00;;;;;9.03;76.40;100613.50;4899614;29;45426;-61
2022/11/24 07:58:28;;;;;;;;;4.20;3.00;;;;;9.05;77.20;100628.66;4867084;29;45450;-61
2022/11/24 08:00:53;;;;;;;;;8.20;3.80;;;;;9.07;76.46;100628.44;4899590;29;45379;-60
2022/11/24 08:03:19;;;;;;;;;2.00;2.00;;;;;9.07;76.98;100628.44;4899294;29;45441;-60
2022/11/24 08:05:55;;;;;;;;;8.25;4.25;;;;;8.53;76.82;100544.25;4899233;29;45561;-60
2022/11/24 08:08:21;;;;;;;;;7.80;5.20;;;;;9.16;76.88;100634.59;4898391;29;45377;-61
2022/11/24 08:10:46;;;;;;;;;9.00;5.00;;;;;8.94;76.78;100602.72;4899423;29;45346;-61
2022/11/24 08:13:11;;;;;;;;;10.00;6.50;;;;;8.88;76.50;100591.75;4891225;28;45671;-60
2022/11/24 08:15:37;;;;;;;;;9.75;6.00;;;;;9.20;76.85;100644.09;4851737;28;45843;-58
2022/11/24 08:18:03;;;;;;;;;6.00;6.00;;;;;9.19;77.24;100645.97;4879117;29;45398;-58
2022/11/24 08:20:29;;;;;;;;;8.00;4.00;;;;;9.12;77.40;100647.03;4860911;29;45331;-63
2022/11/24 08:22:58;;;;;;;;;6.25;4.00;;;;;9.16;77.13;100648.28;4878687;29;45556;-59
2022/11/24 08:25:31;;;;;;;;;7.00;4.80;;;;;9.21;77.05;100660.31;4846288;29;47088;-60
2022/11/24 08:28:00;;;;;;;;;7.60;6.00;;;;;9.26;76.79;100670.66;4878499;29;45479;-60
2022/11/24 08:30:26;;;;;;;;;5.80;4.40;;;;;9.14;76.48;100639.44;4878735;29;45390;-60
2022/11/24 08:32:51;;;;;;;;;12.00;7.50;;;;;9.34;77.01;100673.22;4877875;29;45806;-59
2022/11/24 08:35:17;;;;;;;;;10.00;7.50;;;;;9.40;76.75;100677.00;4878314;29;45474;-59
2022/11/24 08:37:43;;;;;;;;;1.00;0.00;;;;;9.44;76.50;100685.69;4878227;29;45458;-60
2022/11/24 08:40:09;;;;;;;;;8.00;4.50;;;;;9.45;76.85;100679.97;4878136;29;45369;-59
2022/11/24 08:42:34;;;;;;;;;8.00;4.80;;;;;9.46;76.85;100680.84;4878255;29;45800;-62
2022/11/24 08:45:00;;;;;;;;;5.00;3.00;;;;;9.51;76.72;100675.59;4880556;29;45661;-58
2022/11/24 08:47:25;;;;;;;;;6.00;4.00;;;;;9.53;76.08;100684.44;4878396;29;45601;-58
2022/11/24 08:49:51;;;;;;;;;6.00;3.50;;;;;9.57;76.52;100668.44;4878165;29;45679;-59
2022/11/24 08:52:17;;;;;;;;;3.25;2.75;;;;;9.58;76.23;100678.34;4878544;29;45899;-57
2022/11/24 08:54:43;;;;;;;;;9.00;2.75;;;;;9.59;77.18;100675.41;4860974;29;46097;-58
2022/11/24 08:57:10;;;;;;;;;5.00;3.40;;;;;9.39;76.85;100638.88;4877253;29;45689;-57
2022/11/24 08:59:35;;;;;;;;;5.40;3.20;;;;;9.61;76.19;100667.81;4878469;29;45473;-59
2022/11/24 09:02:01;;;;;;;;;6.25;3.00;;;;;9.62;77.09;100669.50;4877798;29;45557;-57
2022/11/24 09:04:26;;;;;;;;;8.25;2.25;;;;;9.65;76.62;100664.66;4878200;29;45803;-57
2022/11/24 09:06:52;;;;;;;;;1.75;1.75;;;;;9.68;76.73;100665.09;4860522;29;46271;-58
2022/11/24 09:09:18;;;;;;;;;2.00;2.00;;;;;9.71;76.18;100683.03;4877188;29;45442;-59
2022/11/24 09:11:43;;;;;;;;;4.50;4.00;;;;;9.72;76.15;100681.97;4877946;29;45624;-60
2022/11/24 09:14:08;;;;;;;;;5.00;4.75;;;;;9.73;75.30;100686.38;4868920;29;45472;-59
2022/11/24 09:16:34;;;;;;;;;6.75;2.50;;;;;9.54;76.04;100649.69;4891362;29;45386;-59
2022/11/24 09:19:01;;;;;;;;;3.75;2.00;;;;;9.73;75.68;100676.25;4848841;28;45906;-59
2022/11/24 09:21:27;;;;;;;;;9.00;3.00;;;;;9.74;76.06;100686.19;4872667;29;45398;-59
2022/11/24 09:23:53;;;;;;;;;3.00;3.00;;;;;9.70;75.62;100678.56;4899845;29;46121;-60
2022/11/24 09:26:26;;;;;;;;;9.40;4.40;;;;;9.70;76.03;100681.31;4867294;29;45461;-60
2022/11/24 09:28:53;;;;;;;;;1.60;1.60;;;;;9.54;76.02;100645.03;4900012;29;45446;-60
2022/11/24 09:31:19;;;;;;;;;6.80;3.60;;;;;9.87;76.03;100687.28;4882235;29;45640;-60
2022/11/24 09:33:44;;;;;;;;;9.25;6.25;;;;;9.94;74.99;100688.13;4880637;29;46505;-59
2022/11/24 09:36:10;;;;;;;;;4.50;1.25;;;;;10.01;75.39;100679.88;4880352;29;45391;-59
2022/11/24 09:38:35;;;;;;;;;4.50;2.50;;;;;10.06;75.21;100684.72;4863833;29;45364;-59
2022/11/24 09:41:47;;;;;;;;;6.50;4.00;;;;;10.11;75.17;100677.59;4883038;29;45570;-59
2022/11/24 09:44:30;;;;;;;;;3.40;3.40;;;;;10.15;74.76;100673.34;4891800;29;46680;-59
2022/11/24 09:46:59;;;;;;;;;10.20;6.40;;;;;10.15;74.49;100678.00;4863497;29;46010;-59
2022/11/24 09:49:38;;;;;;;;;5.00;3.40;;;;;10.13;74.98;100667.22;4864528;29;45387;-60
2022/11/24 09:52:08;;;;;;;;;2.00;2.00;;;;;10.23;74.97;100679.66;4848683;29;45476;-59
2022/11/24 09:54:33;;;;;;;;;5.60;4.00;;;;;10.09;74.99;100651.41;4848795;29;45589;-60
2022/11/24 09:56:59;;;;;;;;;4.50;3.50;;;;;10.26;74.55;100679.25;4881562;29;45844;-59
2022/11/24 09:59:26;;;;;;;;;4.00;2.50;;;;;10.23;75.05;100688.75;4864217;29;45398;-59
2022/11/24 10:01:51;;;;;;;;;3.00;3.00;;;;;10.27;74.70;100683.69;4851500;29;45543;-59
2022/11/24 10:04:20;;;;;;;;;3.50;3.25;;;;;10.30;74.95;100697.00;4879899;29;46607;-59
2022/11/24 10:07:06;;;;;;;;;4.00;3.00;;;;;10.28;74.57;100699.94;4883466;29;45477;-59
2022/11/24 10:09:50;;;;;;;;;2.80;2.00;;;;;10.30;74.49;100707.97;4882999;29;45396;-60
2022/11/24 10:12:22;;;;;;;;;3.40;2.00;;;;;10.34;74.71;100700.16;4883038;29;45528;-59
2022/11/24 10:14:57;;;;;;;;;7.40;6.20;;;;;10.44;74.07;100697.84;4899875;29;46230;-60
2022/11/24 10:17:32;;;;;;;;;3.80;3.00;;;;;10.41;74.58;100699.09;4892992;28;46189;-59
2022/11/24 10:20:19;;;;;;;;;3.20;2.20;;;;;10.47;74.03;100700.19;4891367;29;45351;-60
2022/11/24 10:22:51;;;;;;;;;4.40;4.00;;;;;10.37;74.65;100664.91;4899963;29;45604;-61
2022/11/24 10:25:29;;;;;;;;;3.20;2.80;;;;;10.52;74.60;100683.91;4882653;29;46455;-60
2022/11/24 10:27:58;;;;;;;;;4.20;3.80;;;;;10.56;74.17;100679.69;4882713;29;45438;-60
2022/11/24 10:30:24;;;;;;;;;3.60;3.40;;;;;10.53;74.50;100668.28;4867099;29;45364;-60
2022/11/24 10:33:14;;;;;;;;;3.75;2.00;;;;;10.55;73.87;100656.06;4882347;29;45526;-60
2022/11/24 10:35:45;;;;;;;;;2.80;1.80;;;;;9.69;73.64;100527.00;4899292;29;45417;-58
2022/11/24 10:38:19;;;;;;;;;5.00;2.75;;;;;10.37;74.08;100631.13;4839273;29;1283506;-59
2022/11/24 10:40:47;;;;;;;;;4.20;2.00;;;;;10.70;73.55;100661.31;4900470;29;45284;-58
2022/11/24 10:43:13;;;;;;;;;6.60;4.00;;;;;10.80;73.30;100662.75;4883610;29;45423;-58
2022/11/24 10:45:39;;;;;;;;;5.25;4.00;;;;;10.82;73.69;100657.88;4900180;29;46602;-59
2022/11/24 10:48:21;;;;;;;;;3.00;2.00;;;;;10.80;73.41;100651.75;4900404;29;45535;-59
2022/11/24 10:50:46;;;;;;;;;3.00;1.60;;;;;10.86;72.75;100661.88;4867692;29;45491;-60
2022/11/24 10:53:28;;;;;;;;;2.50;2.00;;;;;10.87;72.75;100657.25;4900539;29;45615;-60
2022/11/24 10:55:56;;;;;;;;;4.00;2.60;;;;;10.93;72.88;100653.59;4882935;29;46372;-61
2022/11/24 10:58:36;;;;;;;;;2.00;2.00;;;;;10.99;72.62;100658.25;4883038;29;45479;-61
2022/11/24 11:01:29;;;;;;;;;7.00;3.00;;;;;11.06;72.33;100652.72;4900204;29;45257;-59
2022/11/24 11:03:56;;;;;;;;;4.40;3.60;;;;;11.11;72.36;100651.00;4862353;29;45400;-61
2022/11/24 11:06:28;;;;;;;;;5.60;2.40;;;;;10.92;72.39;100616.22;4900101;29;47475;-59
2022/11/24 11:09:06;;;;;;;;;3.40;2.00;;;;;11.15;72.68;100632.19;4899814;29;45278;-62
2022/11/24 11:11:31;;;;;;;;;7.00;4.40;;;;;11.14;72.18;100619.53;4882531;29;45368;-59
2022/11/24 11:13:58;;;;;;;;;10.75;4.00;;;;;11.80;72.05;100589.09;4881060;29;45668;-59
2022/11/24 11:16:58;;;;;;;;;5.80;3.40;;;;;16.86;59.54;100635.31;4863938;29;45781;-59
2022/11/24 11:19:37;;;;;;;;;6.80;5.00;;;;;21.10;48.55;100614.44;4866424;29;45461;-59
2022/11/24 11:22:08;;;;;;;;;6.80;4.40;;;;;22.90;41.75;100571.28;4821359;29;45917;-59
2022/11/24 11:24:34;;;;;;;;;9.40;5.00;;;;;24.50;40.40;100604.34;4881144;29;45537;-59
2022/11/24 11:27:04;;;;;;;;;4.75;3.25;;;;;24.27;38.24;100566.91;4848277;29;46848;-60
2022/11/24 11:29:30;;;;;;;;;7.00;4.40;;;;;21.60;42.52;100599.63;4880664;29;45317;-61
2022/11/24 11:31:59;;;;;;;;;8.00;4.80;;;;;19.35;45.57;100570.59;4886103;29;45321;-59
2022/11/24 11:34:25;;;;;;;;;5.00;4.20;;;;;18.06;49.49;100594.97;4899845;28;45479;-61
2022/11/24 11:36:52;;;;;;;;;5.50;4.25;;;;;16.98;52.36;100599.16;4882148;29;46645;-61
2022/11/24 11:39:53;;;;;;;;;5.40;4.20;;;;;15.91;54.49;100553.88;4864143;29;46082;-59
2022/11/24 11:42:40;;;;;;;;;5.00;5.00;;;;;15.21;56.81;100556.00;4881613;29;45563;-59